Time;durP1;ratioP1;P1;durP2;ratioP2;P2;SDS_P1;SDS_P2;PMS_P1;PMS_P2;Temp;Humidity;BMP_temperature;BMP_pressure;BME280_temperature;BME280_humidity;BME280_pressure;Samples;Min_cycle;Max_cycle;Signal;HPM_P1;HPM_P2
2022/01/16 00:00:50;;;;;;;;;;;0.30;80.60;;;;;;5025944;28;89613;-42
2022/01/16 00:06:00;;;;;;;;;;;0.30;80.60;;;;;;5026208;28;87021;-41
2022/01/16 00:08:25;;;;;;;;;;;0.30;80.60;;;;;;5028515;28;88631;-42
2022/01/16 00:10:51;;;;;;;;;;;0.30;80.60;;;;;;5026369;28;87170;-41
2022/01/16 00:13:16;;;;;;;;;;;0.30;80.80;;;;;;5025592;28;88409;-41
2022/01/16 00:15:44;;;;;;;;;;;0.30;80.50;;;;;;5026075;28;87117;-42
2022/01/16 00:18:22;;;;;;;;;;;0.30;80.30;;;;;;5025731;28;89247;-41
2022/01/16 00:20:48;;;;;;;;;;;0.30;80.30;;;;;;5026055;28;88597;-41
2022/01/16 00:23:22;;;;;;;;;;;0.30;80.60;;;;;;5025904;28;87018;-41
2022/01/16 00:25:48;;;;;;;;;;;0.40;80.50;;;;;;5025981;28;88738;-41
2022/01/16 00:28:13;;;;;;;;;;;0.30;80.60;;;;;;5024647;28;90414;-42
2022/01/16 00:30:39;;;;;;;;;;;0.30;80.30;;;;;;5028791;28;87153;-41
2022/01/16 00:33:04;;;;;;;;;;;0.30;80.70;;;;;;5024982;28;89784;-42
2022/01/16 00:35:30;;;;;;;;;;;0.30;80.70;;;;;;5025534;28;87126;-42
2022/01/16 00:37:55;;;;;;;;;;;0.30;80.50;;;;;;5025770;28;89248;-42
2022/01/16 00:40:21;;;;;;;;;;;0.30;80.40;;;;;;5025361;28;89373;-41
2022/01/16 00:42:46;;;;;;;;;;;0.20;80.70;;;;;;5025334;28;87220;-41
2022/01/16 00:45:12;;;;;;;;;;;0.20;80.30;;;;;;5026178;28;86560;-42
2022/01/16 00:47:37;;;;;;;;;;;0.20;80.30;;;;;;5024957;28;89562;-41
2022/01/16 00:50:04;;;;;;;;;;;0.20;80.30;;;;;;5025215;28;87174;-41
2022/01/16 00:52:30;;;;;;;;;;;0.20;80.50;;;;;;5027248;28;90113;-41
2022/01/16 00:54:58;;;;;;;;;;;0.20;80.20;;;;;;5024420;28;87171;-41
2022/01/16 00:57:24;;;;;;;;;;;0.20;80.40;;;;;;5025285;28;88946;-41
2022/01/16 00:59:49;;;;;;;;;;;0.20;80.10;;;;;;5024864;28;89375;-41
2022/01/16 01:02:15;;;;;;;;;;;0.20;80.40;;;;;;5025466;28;87026;-41
2022/01/16 01:04:44;;;;;;;;;;;0.10;80.40;;;;;;5024965;28;89062;-41
2022/01/16 01:07:10;;;;;;;;;;;0.20;80.40;;;;;;5024770;28;88467;-41
2022/01/16 01:09:36;;;;;;;;;;;0.10;80.20;;;;;;5025597;28;86422;-41
2022/01/16 01:12:03;;;;;;;;;;;0.20;80.30;;;;;;5027829;28;87258;-41
2022/01/16 01:14:52;;;;;;;;;;;0.20;80.30;;;;;;5025012;28;87178;-42
2022/01/16 01:17:23;;;;;;;;;;;0.20;80.20;;;;;;5024401;28;88933;-41
2022/01/16 01:19:49;;;;;;;;;;;0.10;80.30;;;;;;5024574;28;89635;-41
2022/01/16 01:22:14;;;;;;;;;;;0.20;80.10;;;;;;5025057;28;87107;-41
2022/01/16 01:24:40;;;;;;;;;;;0.10;80.10;;;;;;5024785;28;87879;-41
2022/01/16 01:29:31;;;;;;;;;;;0.10;80.30;;;;;;5025007;28;87076;-41
2022/01/16 01:31:57;;;;;;;;;;;0.10;80.30;;;;;;5024636;28;88795;-41
2022/01/16 01:34:22;;;;;;;;;;;0.10;80.20;;;;;;5027636;28;88871;-41
2022/01/16 01:36:49;;;;;;;;;;;0.00;80.30;;;;;;5024620;28;88292;-41
2022/01/16 01:39:15;;;;;;;;;;;0.10;80.30;;;;;;5024287;28;90058;-41
2022/01/16 01:41:41;;;;;;;;;;;0.00;80.00;;;;;;5023477;28;88057;-42
2022/01/16 01:52:19;;;;;;;;;;;0.00;80.20;;;;;;5024819;28;86912;-42
2022/01/16 01:54:46;;;;;;;;;;;0.00;80.30;;;;;;5023822;28;89460;-41
2022/01/16 01:57:11;;;;;;;;;;;0.00;80.30;;;;;;5027389;28;87132;-42
2022/01/16 01:59:39;;;;;;;;;;;0.00;80.10;;;;;;5024492;28;88567;-42
2022/01/16 02:02:08;;;;;;;;;;;-0.10;79.90;;;;;;5024090;28;87004;-42
2022/01/16 02:04:34;;;;;;;;;;;0.00;80.20;;;;;;5024335;28;88872;-42
2022/01/16 02:06:59;;;;;;;;;;;0.00;80.00;;;;;;5023014;28;90251;-42
2022/01/16 02:09:25;;;;;;;;;;;0.00;80.10;;;;;;5023880;28;87165;-42
2022/01/16 02:11:51;;;;;;;;;;;-0.10;80.00;;;;;;5024324;28;87404;-41
2022/01/16 02:14:31;;;;;;;;;;;0.00;80.00;;;;;;5023756;28;89223;-41
2022/01/16 02:28:07;;;;;;;;;;;-0.20;80.00;;;;;;5024011;28;87302;-41
2022/01/16 02:35:53;;;;;;;;;;;-0.20;80.00;;;;;;5012286;28;87424;-41
2022/01/16 02:38:20;;;;;;;;;;;-0.20;79.70;;;;;;5023669;28;87125;-41
2022/01/16 02:40:55;;;;;;;;;;;-0.20;79.90;;;;;;5023172;28;88925;-42
2022/01/16 02:43:29;;;;;;;;;;;-0.20;80.00;;;;;;5026185;28;89215;-41
2022/01/16 02:46:10;;;;;;;;;;;-0.20;79.90;;;;;;5023911;28;88971;-41
2022/01/16 02:48:35;;;;;;;;;;;-0.20;80.00;;;;;;5023503;28;88054;-41
2022/01/16 02:51:01;;;;;;;;;;;-0.20;80.10;;;;;;5023778;28;86452;-41
2022/01/16 02:53:26;;;;;;;;;;;-0.20;80.00;;;;;;5023602;28;88464;-41
2022/01/16 02:55:52;;;;;;;;;;;-0.30;79.70;;;;;;5022960;28;89763;-41
2022/01/16 02:58:17;;;;;;;;;;;-0.30;80.00;;;;;;5023114;28;88077;-41
2022/01/16 03:00:43;;;;;;;;;;;-0.30;79.90;;;;;;5023703;28;89619;-41
2022/01/16 03:03:08;;;;;;;;;;;-0.30;79.90;;;;;;5023041;28;89581;-41
2022/01/16 03:05:35;;;;;;;;;;;-0.30;80.00;;;;;;5026676;28;86855;-41
2022/01/16 03:08:01;;;;;;;;;;;-0.30;80.00;;;;;;5022754;28;89158;-41
2022/01/16 03:13:07;;;;;;;;;;;-0.40;79.80;;;;;;5021966;28;87166;-41
2022/01/16 03:15:33;;;;;;;;;;;-0.40;80.10;;;;;;5023376;28;88638;-41
2022/01/16 03:23:09;;;;;;;;;;;-0.30;79.90;;;;;;5026003;28;88145;-41
2022/01/16 03:25:34;;;;;;;;;;;-0.40;79.90;;;;;;5029546;28;87077;-41
2022/01/16 03:28:00;;;;;;;;;;;-0.40;79.70;;;;;;5026428;28;89387;-41
2022/01/16 03:30:25;;;;;;;;;;;-0.40;79.90;;;;;;5026669;28;86867;-41
2022/01/16 03:32:51;;;;;;;;;;;-0.40;79.80;;;;;;5026971;28;87470;-41
2022/01/16 03:35:16;;;;;;;;;;;-0.30;80.20;;;;;;5026143;28;89381;-41
2022/01/16 03:37:42;;;;;;;;;;;-0.40;79.90;;;;;;5026495;28;87008;-41
2022/01/16 03:40:10;;;;;;;;;;;-0.40;79.80;;;;;;5026918;28;89238;-41
2022/01/16 03:42:37;;;;;;;;;;;-0.40;79.90;;;;;;5025942;28;89655;-41
2022/01/16 03:45:06;;;;;;;;;;;-0.40;79.70;;;;;;5026317;28;87035;-41
2022/01/16 03:47:31;;;;;;;;;;;-0.40;79.80;;;;;;5028372;28;88900;-41
2022/01/16 03:49:57;;;;;;;;;;;-0.40;79.90;;;;;;5026133;28;87100;-41
2022/01/16 03:52:23;;;;;;;;;;;-0.50;79.80;;;;;;5026337;28;89126;-41
2022/01/16 03:54:48;;;;;;;;;;;-0.50;79.70;;;;;;5025814;28;89638;-41
2022/01/16 03:57:14;;;;;;;;;;;-0.50;79.70;;;;;;5026126;28;87037;-41
2022/01/16 03:59:39;;;;;;;;;;;-0.50;79.70;;;;;;5026272;28;88870;-41
2022/01/16 04:02:05;;;;;;;;;;;-0.50;79.80;;;;;;5025736;28;89382;-41
2022/01/16 04:04:30;;;;;;;;;;;-0.60;79.70;;;;;;5026567;28;86371;-41
2022/01/16 04:06:56;;;;;;;;;;;-0.60;79.70;;;;;;5026296;28;87104;-41
2022/01/16 04:09:22;;;;;;;;;;;-0.60;79.70;;;;;;5028739;28;89514;-41
2022/01/16 04:11:52;;;;;;;;;;;-0.60;79.70;;;;;;5025327;28;88853;-41
2022/01/16 04:17:03;;;;;;;;;;;-0.60;79.70;;;;;;5026143;28;86900;-41
2022/01/16 04:19:28;;;;;;;;;;;-0.60;79.90;;;;;;5026067;28;90001;-41
2022/01/16 04:21:54;;;;;;;;;;;-0.60;79.60;;;;;;5025470;28;89637;-41
2022/01/16 04:24:19;;;;;;;;;;;-0.60;79.80;;;;;;5025979;28;87035;-41
2022/01/16 04:26:45;;;;;;;;;;;-0.70;79.70;;;;;;5025789;28;88788;-41
2022/01/16 04:29:10;;;;;;;;;;;-0.60;79.70;;;;;;5025590;28;88898;-41
2022/01/16 04:31:36;;;;;;;;;;;-0.60;79.60;;;;;;5027832;28;87177;-41
2022/01/16 04:34:01;;;;;;;;;;;-0.70;79.60;;;;;;5024170;28;91249;-41
2022/01/16 04:36:27;;;;;;;;;;;-0.70;79.90;;;;;;5024758;28;88551;-41
2022/01/16 04:38:52;;;;;;;;;;;-0.70;79.60;;;;;;5025558;28;90031;-41
2022/01/16 04:44:03;;;;;;;;;;;-0.70;79.60;;;;;;5025354;28;87112;-41
2022/01/16 04:46:29;;;;;;;;;;;-0.70;79.60;;;;;;5025430;28;89078;-41
2022/01/16 04:48:55;;;;;;;;;;;-0.70;79.70;;;;;;5025044;28;88375;-41
2022/01/16 04:51:21;;;;;;;;;;;-0.70;79.70;;;;;;5025630;28;87132;-41
2022/01/16 04:53:47;;;;;;;;;;;-0.80;79.60;;;;;;5028477;28;88196;-41
2022/01/16 04:56:13;;;;;;;;;;;-0.80;79.70;;;;;;5025186;28;87152;-41
2022/01/16 04:58:39;;;;;;;;;;;-0.80;79.60;;;;;;5024980;28;88035;-41
2022/01/16 05:01:05;;;;;;;;;;;-0.80;79.30;;;;;;5024394;28;90486;-41
2022/01/16 05:03:31;;;;;;;;;;;-0.80;79.50;;;;;;5025160;28;87212;-41
2022/01/16 05:05:57;;;;;;;;;;;-0.80;79.60;;;;;;5025188;28;88779;-41
2022/01/16 05:08:22;;;;;;;;;;;-0.80;80.20;;;;;;5024874;28;89287;-41
2022/01/16 05:10:52;;;;;;;;;;;-0.80;79.60;;;;;;5025140;28;86849;-41
2022/01/16 05:18:34;;;;;;;;;;;-0.80;79.50;;;;;;5023880;28;86640;-41
2022/01/16 05:21:00;;;;;;;;;;;-0.80;79.60;;;;;;5024430;28;89869;-41
2022/01/16 05:23:26;;;;;;;;;;;-0.80;79.50;;;;;;5024831;28;87034;-41
2022/01/16 05:25:51;;;;;;;;;;;-0.80;79.40;;;;;;5024109;28;88831;-41
2022/01/16 05:28:17;;;;;;;;;;;-0.90;79.50;;;;;;5024480;28;89164;-41
2022/01/16 05:30:42;;;;;;;;;;;-0.90;79.40;;;;;;5024715;28;87164;-41
2022/01/16 05:33:09;;;;;;;;;;;-0.90;79.30;;;;;;5023545;28;88633;-41
2022/01/16 05:35:34;;;;;;;;;;;-0.90;80.00;;;;;;5027073;28;89522;-41
2022/01/16 05:38:00;;;;;;;;;;;-0.90;79.50;;;;;;5024562;28;88511;-41
2022/01/16 05:40:25;;;;;;;;;;;-0.90;79.50;;;;;;5023532;28;89383;-42
2022/01/16 05:42:51;;;;;;;;;;;-0.90;79.50;;;;;;5024710;28;86339;-41
2022/01/16 05:45:17;;;;;;;;;;;-1.00;79.50;;;;;;5024864;28;87071;-41
2022/01/16 05:47:42;;;;;;;;;;;-1.00;79.50;;;;;;5024041;28;89795;-41
2022/01/16 05:50:08;;;;;;;;;;;-1.00;79.60;;;;;;5023773;28;87760;-41
2022/01/16 05:52:34;;;;;;;;;;;-0.90;79.40;;;;;;5024390;28;90015;-41
2022/01/16 05:54:59;;;;;;;;;;;-1.00;79.50;;;;;;5023835;28;90047;-41
2022/01/16 05:57:25;;;;;;;;;;;-1.00;79.40;;;;;;5027241;28;87124;-41
2022/01/16 05:59:50;;;;;;;;;;;-1.00;79.30;;;;;;5024262;28;87942;-41
2022/01/16 06:02:16;;;;;;;;;;;-1.00;79.30;;;;;;5024313;28;87097;-41
2022/01/16 06:04:41;;;;;;;;;;;-1.00;79.30;;;;;;5024392;28;88806;-41
2022/01/16 06:07:07;;;;;;;;;;;-1.00;79.30;;;;;;5024196;28;89413;-41
2022/01/16 06:09:32;;;;;;;;;;;-1.00;79.20;;;;;;5024139;28;87261;-41
2022/01/16 06:11:58;;;;;;;;;;;-1.00;79.20;;;;;;5023947;28;88939;-41
2022/01/16 06:14:24;;;;;;;;;;;-1.00;79.30;;;;;;5023473;28;88886;-41
2022/01/16 06:16:52;;;;;;;;;;;-1.00;79.10;;;;;;5024039;28;87038;-41
2022/01/16 06:19:18;;;;;;;;;;;-1.00;79.20;;;;;;5026684;28;88842;-41
2022/01/16 06:21:44;;;;;;;;;;;-1.00;79.10;;;;;;5024025;28;87111;-41
2022/01/16 06:24:10;;;;;;;;;;;-1.00;79.10;;;;;;5024154;28;89156;-41
2022/01/16 06:26:36;;;;;;;;;;;-1.00;78.80;;;;;;5023275;28;89284;-41
2022/01/16 06:29:01;;;;;;;;;;;-1.10;79.10;;;;;;5024000;28;87170;-41
2022/01/16 06:31:27;;;;;;;;;;;-1.00;78.90;;;;;;5024429;28;89140;-41
2022/01/16 06:33:53;;;;;;;;;;;-1.10;79.00;;;;;;5023572;28;89615;-41
2022/01/16 06:36:18;;;;;;;;;;;-1.10;79.10;;;;;;5023725;28;87107;-41
2022/01/16 06:38:44;;;;;;;;;;;-1.00;79.00;;;;;;5023030;28;89368;-41
2022/01/16 06:41:10;;;;;;;;;;;-1.00;78.80;;;;;;5025680;28;89484;-41
2022/01/16 06:43:35;;;;;;;;;;;-1.00;79.00;;;;;;5023800;28;88887;-41
2022/01/16 06:46:01;;;;;;;;;;;-1.10;78.80;;;;;;5023172;28;90087;-41
2022/01/16 06:48:27;;;;;;;;;;;-1.10;79.50;;;;;;5023570;28;87031;-41
2022/01/16 06:50:52;;;;;;;;;;;-1.10;78.90;;;;;;5023736;28;89019;-41
2022/01/16 06:53:18;;;;;;;;;;;-1.10;78.90;;;;;;5022232;28;89791;-41
2022/01/16 06:55:43;;;;;;;;;;;-1.20;78.80;;;;;;5023707;28;86365;-41
2022/01/16 06:58:09;;;;;;;;;;;-1.20;78.80;;;;;;5023344;28;88114;-41
2022/01/16 07:00:34;;;;;;;;;;;-1.20;79.00;;;;;;5023205;28;89742;-41
2022/01/16 07:03:00;;;;;;;;;;;-1.20;78.90;;;;;;5025726;28;88085;-41
2022/01/16 07:05:25;;;;;;;;;;;-1.10;78.90;;;;;;5022926;28;89525;-41
2022/01/16 07:07:51;;;;;;;;;;;-1.10;78.80;;;;;;5023479;28;87089;-41
2022/01/16 07:10:17;;;;;;;;;;;-1.10;78.80;;;;;;5023173;28;89161;-41
2022/01/16 07:12:42;;;;;;;;;;;-1.10;79.00;;;;;;5023148;28;87925;-41
2022/01/16 07:15:08;;;;;;;;;;;-1.20;78.80;;;;;;5023202;28;87226;-41
2022/01/16 07:17:34;;;;;;;;;;;-1.20;78.90;;;;;;5023092;28;87734;-41
2022/01/16 07:19:59;;;;;;;;;;;-1.20;79.50;;;;;;5023387;28;88957;-41
2022/01/16 07:22:25;;;;;;;;;;;-1.20;79.00;;;;;;5026053;28;87026;-41
2022/01/16 07:24:51;;;;;;;;;;;-1.20;78.70;;;;;;5022862;28;88670;-41
2022/01/16 07:27:17;;;;;;;;;;;-1.20;79.00;;;;;;5022439;28;88116;-41
2022/01/16 07:29:42;;;;;;;;;;;-1.20;78.80;;;;;;5022999;28;90096;-41
2022/01/16 07:32:08;;;;;;;;;;;-1.30;78.90;;;;;;5022733;28;89738;-41
2022/01/16 07:34:33;;;;;;;;;;;-1.20;79.10;;;;;;5023021;28;86868;-41
2022/01/16 07:36:59;;;;;;;;;;;-1.20;78.80;;;;;;5023184;28;87355;-41
2022/01/16 07:39:24;;;;;;;;;;;-1.20;79.10;;;;;;5022658;28;89394;-41
2022/01/16 07:41:50;;;;;;;;;;;-1.20;78.90;;;;;;5022425;28;87197;-41
2022/01/16 07:44:15;;;;;;;;;;;-1.30;78.80;;;;;;5026056;28;88810;-41
2022/01/16 07:46:41;;;;;;;;;;;-1.30;78.80;;;;;;5022827;28;87132;-41
2022/01/16 07:49:06;;;;;;;;;;;-1.30;79.20;;;;;;5022910;28;88051;-41
2022/01/16 07:51:32;;;;;;;;;;;-1.30;79.00;;;;;;5021899;28;89140;-41
2022/01/16 07:53:58;;;;;;;;;;;-1.30;79.20;;;;;;5022863;28;87103;-41
2022/01/16 07:56:24;;;;;;;;;;;-1.30;79.00;;;;;;5022688;28;87902;-41
2022/01/16 07:58:49;;;;;;;;;;;-1.40;79.10;;;;;;5022392;28;89511;-41
2022/01/16 08:01:15;;;;;;;;;;;-1.40;79.40;;;;;;5022827;28;87140;-41
2022/01/16 08:03:40;;;;;;;;;;;-1.30;79.40;;;;;;5022886;28;87964;-41
2022/01/16 08:06:06;;;;;;;;;;;-1.40;79.30;;;;;;5028485;28;89355;-41
2022/01/16 08:08:31;;;;;;;;;;;-1.30;79.40;;;;;;5026460;28;89114;-41
2022/01/16 08:10:57;;;;;;;;;;;-1.40;79.20;;;;;;5025691;28;89657;-41
2022/01/16 08:13:23;;;;;;;;;;;-1.40;79.50;;;;;;5025883;28;87163;-41
2022/01/16 08:15:48;;;;;;;;;;;-1.40;79.30;;;;;;5025544;28;87956;-41
2022/01/16 08:18:14;;;;;;;;;;;-1.40;79.30;;;;;;5025822;28;87887;-41
2022/01/16 08:20:39;;;;;;;;;;;-1.40;79.40;;;;;;5026013;28;87138;-41
2022/01/16 08:23:05;;;;;;;;;;;-1.40;79.40;;;;;;5025914;28;89193;-41
2022/01/16 08:25:30;;;;;;;;;;;-1.40;79.70;;;;;;5025392;28;89437;-41
2022/01/16 08:27:57;;;;;;;;;;;-1.50;79.90;;;;;;5028747;28;87181;-41
2022/01/16 08:30:22;;;;;;;;;;;-1.40;79.60;;;;;;5025337;28;88322;-41
2022/01/16 08:32:48;;;;;;;;;;;-1.40;79.90;;;;;;5026468;28;86452;-41
2022/01/16 08:35:13;;;;;;;;;;;-1.50;80.10;;;;;;5025888;28;88805;-41
2022/01/16 08:37:39;;;;;;;;;;;-1.50;79.80;;;;;;5025072;28;88262;-41
2022/01/16 08:40:05;;;;;;;;;;;-1.50;80.20;;;;;;5025050;28;87828;-41
2022/01/16 08:42:30;;;;;;;;;;;-1.50;80.10;;;;;;5025057;28;89579;-41
2022/01/16 08:44:56;;;;;;;;;;;-1.50;80.20;;;;;;5025535;28;87093;-41
2022/01/16 08:47:22;;;;;;;;;;;-1.60;80.20;;;;;;5025726;28;87115;-41
2022/01/16 08:49:48;;;;;;;;;;;-1.60;80.50;;;;;;5027971;28;88679;-41
2022/01/16 08:52:13;;;;;;;;;;;-1.60;80.70;;;;;;5025502;28;87154;-41
2022/01/16 08:54:39;;;;;;;;;;;-1.60;80.80;;;;;;5025525;28;88937;-41
2022/01/16 08:57:05;;;;;;;;;;;-1.60;80.60;;;;;;5025240;28;87672;-41
2022/01/16 08:59:31;;;;;;;;;;;-1.60;80.60;;;;;;5025579;28;87065;-41
2022/01/16 09:01:56;;;;;;;;;;;-1.60;80.50;;;;;;5025361;28;89039;-41
2022/01/16 09:04:22;;;;;;;;;;;-1.60;80.70;;;;;;5024458;28;90394;-41
2022/01/16 09:06:47;;;;;;;;;;;-1.60;80.90;;;;;;5025129;28;87027;-41
2022/01/16 09:09:13;;;;;;;;;;;-1.60;80.80;;;;;;5025332;28;88805;-41
2022/01/16 09:11:38;;;;;;;;;;;-1.70;81.00;;;;;;5027431;28;88558;-41
2022/01/16 09:14:04;;;;;;;;;;;-1.70;81.10;;;;;;5025180;28;88038;-41
2022/01/16 09:16:30;;;;;;;;;;;-1.70;81.30;;;;;;5023955;28;90182;-41
2022/01/16 09:18:56;;;;;;;;;;;-1.70;81.10;;;;;;5025022;28;87087;-41
2022/01/16 09:21:22;;;;;;;;;;;-1.70;81.20;;;;;;5025421;28;88977;-41
2022/01/16 09:23:48;;;;;;;;;;;-1.70;81.40;;;;;;5024559;28;88573;-41
2022/01/16 09:26:14;;;;;;;;;;;-1.70;81.60;;;;;;5024596;28;87261;-41
2022/01/16 09:28:40;;;;;;;;;;;-1.80;81.60;;;;;;5024200;28;89003;-41
2022/01/16 09:31:06;;;;;;;;;;;-1.80;81.70;;;;;;5027335;28;89527;-41
2022/01/16 09:33:31;;;;;;;;;;;-1.80;81.70;;;;;;5024874;28;89113;-41
2022/01/16 09:35:57;;;;;;;;;;;-1.80;81.90;;;;;;5024536;28;88749;-41
2022/01/16 09:38:22;;;;;;;;;;;-1.80;81.80;;;;;;5024675;28;87242;-41
2022/01/16 09:40:49;;;;;;;;;;;-1.80;81.80;;;;;;5024455;28;87295;-41
2022/01/16 09:43:15;;;;;;;;;;;-1.80;81.90;;;;;;5024425;28;88458;-41
2022/01/16 09:45:41;;;;;;;;;;;-1.80;81.90;;;;;;5025075;28;86310;-41
2022/01/16 09:48:06;;;;;;;;;;;-1.80;81.90;;;;;;5024669;28;87569;-41
2022/01/16 09:50:32;;;;;;;;;;;-1.80;81.90;;;;;;5024208;28;89737;-41
2022/01/16 09:52:59;;;;;;;;;;;-1.80;82.00;;;;;;5026716;28;87995;-41
2022/01/16 09:55:25;;;;;;;;;;;-1.80;82.10;;;;;;5024020;28;88523;-41
2022/01/16 09:57:53;;;;;;;;;;;-1.70;81.70;;;;;;5024074;28;87136;-41
2022/01/16 10:00:20;;;;;;;;;;;-1.70;81.90;;;;;;5024295;28;88785;-41
2022/01/16 10:02:46;;;;;;;;;;;-1.70;82.60;;;;;;5023938;28;89624;-41
2022/01/16 10:05:29;;;;;;;;;;;-1.70;81.90;;;;;;5024594;28;87109;-41
2022/01/16 10:07:55;;;;;;;;;;;-1.70;81.60;;;;;;5024302;28;88975;-41
2022/01/16 10:10:25;;;;;;;;;;;-1.70;82.20;;;;;;5024603;28;87280;-41
2022/01/16 10:12:54;;;;;;;;;;;-1.70;82.10;;;;;;5024363;28;86934;-41
2022/01/16 10:15:20;;;;;;;;;;;-1.70;82.10;;;;;;5026670;28;88878;-41
2022/01/16 10:17:46;;;;;;;;;;;-1.60;81.70;;;;;;5023472;28;88135;-41
2022/01/16 10:20:12;;;;;;;;;;;-1.60;81.30;;;;;;5024196;28;89690;-41
2022/01/16 10:22:38;;;;;;;;;;;-1.60;81.50;;;;;;5023709;28;89510;-41
2022/01/16 10:25:05;;;;;;;;;;;-1.50;81.40;;;;;;5023775;28;86882;-41
2022/01/16 10:27:33;;;;;;;;;;;-1.50;81.30;;;;;;5023930;28;89061;-41
2022/01/16 10:30:01;;;;;;;;;;;-1.50;81.70;;;;;;5023575;28;89265;-41
2022/01/16 10:32:31;;;;;;;;;;;-1.40;81.60;;;;;;5023715;28;87114;-41
2022/01/16 10:35:07;;;;;;;;;;;-1.40;81.70;;;;;;5024349;28;88919;-41
2022/01/16 10:37:33;;;;;;;;;;;-1.40;81.70;;;;;;5025957;28;89420;-41
2022/01/16 10:40:00;;;;;;;;;;;-1.40;82.10;;;;;;5023733;28;88855;-41
2022/01/16 10:42:27;;;;;;;;;;;-1.40;81.80;;;;;;5022313;28;90360;-41
2022/01/16 10:44:58;;;;;;;;;;;-1.40;81.80;;;;;;5023666;28;87111;-41
2022/01/16 10:47:25;;;;;;;;;;;-1.40;81.80;;;;;;5023528;28;88421;-41
2022/01/16 10:50:03;;;;;;;;;;;-1.40;82.00;;;;;;5023075;28;89421;-41
2022/01/16 10:52:28;;;;;;;;;;;-1.40;81.60;;;;;;5023656;28;87143;-41
2022/01/16 10:54:54;;;;;;;;;;;-1.40;81.80;;;;;;5023739;28;88880;-41
2022/01/16 10:57:22;;;;;;;;;;;-1.40;82.10;;;;;;5023039;28;89228;-41
2022/01/16 10:59:48;;;;;;;;;;;-1.40;81.60;;;;;;5026913;28;86308;-41
2022/01/16 11:02:14;;;;;;;;;;;-1.40;81.90;;;;;;5023154;28;89598;-41
2022/01/16 11:04:40;;;;;;;;;;;-1.40;82.00;;;;;;5023286;28;87139;-41
2022/01/16 11:07:05;;;;;;;;;;;-1.40;81.90;;;;;;5022872;28;88813;-41
2022/01/16 11:09:31;;;;;;;;;;;-1.30;81.90;;;;;;5023157;28;89283;-41
2022/01/16 11:12:00;;;;;;;;;;;-1.30;82.10;;;;;;5023322;28;86891;-41
2022/01/16 11:14:29;;;;;;;;;;;-1.30;82.00;;;;;;5023270;28;89038;-41
2022/01/16 11:16:56;;;;;;;;;;;-1.30;81.90;;;;;;5021665;28;91193;-41
2022/01/16 11:19:23;;;;;;;;;;;-1.30;81.70;;;;;;5023172;28;87127;-41
2022/01/16 11:21:53;;;;;;;;;;;-1.30;82.00;;;;;;5025893;28;88139;-41
2022/01/16 11:26:52;;;;;;;;;;;-1.30;82.10;;;;;;5022305;28;87003;-41
2022/01/16 11:29:17;;;;;;;;;;;-1.30;82.00;;;;;;5022848;28;89371;-41
2022/01/16 11:31:43;;;;;;;;;;;-1.20;82.10;;;;;;5022380;28;88047;-41
2022/01/16 11:34:10;;;;;;;;;;;-1.20;82.00;;;;;;5023218;28;88762;-41
2022/01/16 11:36:36;;;;;;;;;;;-1.20;82.00;;;;;;5022607;28;89796;-41
2022/01/16 11:39:04;;;;;;;;;;;-1.20;81.80;;;;;;5023517;28;87171;-41
2022/01/16 11:41:35;;;;;;;;;;;-1.20;81.80;;;;;;5028876;28;88530;-41
2022/01/16 11:44:03;;;;;;;;;;;-1.20;81.90;;;;;;5025090;28;86918;-41
2022/01/16 11:46:29;;;;;;;;;;;-1.20;81.90;;;;;;5026396;28;89569;-41
2022/01/16 11:49:01;;;;;;;;;;;-1.20;82.00;;;;;;5026753;28;88994;-41
2022/01/16 11:51:37;;;;;;;;;;;-1.20;81.90;;;;;;5025008;28;87116;-41
2022/01/16 11:54:04;;;;;;;;;;;-1.20;82.20;;;;;;5026337;28;89482;-41
2022/01/16 11:56:42;;;;;;;;;;;-1.10;82.10;;;;;;5025229;28;90406;-41
2022/01/16 11:59:14;;;;;;;;;;;-1.10;82.20;;;;;;5026125;28;87178;-41
2022/01/16 12:01:44;;;;;;;;;;;-1.10;82.10;;;;;;5026316;28;88980;-41
2022/01/16 12:04:28;;;;;;;;;;;-1.10;82.20;;;;;;5028877;28;89307;-41
2022/01/16 12:06:57;;;;;;;;;;;-1.00;82.10;;;;;;5026042;28;88626;-41
2022/01/16 12:10:20;;;;;;;;;;;-1.00;81.60;;;;;;5025591;28;89639;-41
2022/01/16 12:12:20;;;;;;;;;;;-0.90;81.90;;;;;;5025295;28;86987;-41
2022/01/16 12:14:53;;;;;;;;;;;-0.90;81.80;;;;;;5026503;28;87974;-41
2022/01/16 12:17:27;;;;;;;;;;;-1.00;81.80;;;;;;5025448;28;89168;-41
2022/01/16 12:19:54;;;;;;;;;;;-1.00;81.80;;;;;;5026042;28;87119;-41
2022/01/16 12:22:47;;;;;;;;;;;-0.90;81.90;;;;;;5025331;28;88787;-41
2022/01/16 12:25:17;;;;;;;;;;;-0.90;81.80;;;;;;5025360;28;88571;-41
2022/01/16 12:27:46;;;;;;;;;;;-0.90;82.00;;;;;;5028930;28;87073;-41
2022/01/16 12:30:15;;;;;;;;;;;-0.90;82.30;;;;;;5025425;28;89242;-41
2022/01/16 12:32:56;;;;;;;;;;;-0.90;82.20;;;;;;5025645;28;86718;-41
2022/01/16 12:35:40;;;;;;;;;;;-0.90;82.00;;;;;;5025687;28;88726;-41
2022/01/16 12:38:06;;;;;;;;;;;-0.90;82.20;;;;;;5025205;28;90199;-41
2022/01/16 12:40:32;;;;;;;;;;;-0.80;82.50;;;;;;5025652;28;86365;-41
2022/01/16 12:42:59;;;;;;;;;;;-0.80;82.30;;;;;;5025907;28;87044;-41
2022/01/16 12:45:25;;;;;;;;;;;-0.80;82.40;;;;;;5025043;28;89363;-41
2022/01/16 12:47:51;;;;;;;;;;;-0.80;82.20;;;;;;5024912;28;88134;-41
2022/01/16 12:50:16;;;;;;;;;;;-0.80;82.40;;;;;;5027560;28;90402;-41
2022/01/16 12:52:46;;;;;;;;;;;-0.80;81.90;;;;;;5024842;28;87063;-41
2022/01/16 12:55:11;;;;;;;;;;;-0.80;82.20;;;;;;5025337;28;89086;-41
2022/01/16 12:57:37;;;;;;;;;;;-0.70;82.40;;;;;;5024927;28;89472;-41
2022/01/16 13:00:12;;;;;;;;;;;-0.70;82.60;;;;;;5025063;28;86815;-41
2022/01/16 13:02:38;;;;;;;;;;;-0.70;81.90;;;;;;5023973;28;88132;-41
2022/01/16 13:05:04;;;;;;;;;;;-0.70;82.00;;;;;;5025469;28;88887;-41
2022/01/16 13:07:30;;;;;;;;;;;-0.70;81.90;;;;;;5025218;28;87106;-41
2022/01/16 13:09:56;;;;;;;;;;;-0.70;82.20;;;;;;5025331;28;86982;-41
2022/01/16 13:12:22;;;;;;;;;;;-0.70;81.60;;;;;;5027064;28;90694;-41
2022/01/16 13:14:48;;;;;;;;;;;-0.70;81.80;;;;;;5025109;28;89843;-41
2022/01/16 13:17:14;;;;;;;;;;;-0.60;81.90;;;;;;5024559;28;89624;-41
2022/01/16 13:19:55;;;;;;;;;;;-0.60;81.80;;;;;;5025105;28;86995;-41
2022/01/16 13:22:23;;;;;;;;;;;-0.60;81.80;;;;;;5025091;28;88874;-41
2022/01/16 13:24:56;;;;;;;;;;;-0.60;81.70;;;;;;5024930;28;89631;-41
2022/01/16 13:27:22;;;;;;;;;;;-0.60;81.50;;;;;;5024892;28;87092;-41
2022/01/16 13:29:53;;;;;;;;;;;-0.50;81.70;;;;;;5025259;28;88960;-41
2022/01/16 13:32:25;;;;;;;;;;;-0.60;81.80;;;;;;5024401;28;89708;-41
2022/01/16 13:34:55;;;;;;;;;;;-0.60;81.70;;;;;;5027784;28;87118;-41
2022/01/16 13:37:29;;;;;;;;;;;-0.50;81.60;;;;;;5023708;28;88914;-41
2022/01/16 13:40:02;;;;;;;;;;;-0.50;81.60;;;;;;5024707;28;87124;-41
2022/01/16 13:43:16;;;;;;;;;;;-0.50;81.50;;;;;;5024195;28;89148;-41
2022/01/16 13:45:39;;;;;;;;;;;-0.50;81.60;;;;;;5023391;28;87483;-41
2022/01/16 13:48:10;;;;;;;;;;;-0.50;81.60;;;;;;5024523;28;87179;-41
2022/01/16 13:51:03;;;;;;;;;;;-0.50;81.30;;;;;;5024671;28;87721;-41
2022/01/16 13:53:37;;;;;;;;;;;-0.40;81.50;;;;;;5024481;28;89888;-41
2022/01/16 13:56:06;;;;;;;;;;;-0.40;81.30;;;;;;5027573;28;86073;-41
2022/01/16 13:58:33;;;;;;;;;;;-0.40;81.10;;;;;;5024050;28;89334;-41
2022/01/16 14:01:01;;;;;;;;;;;-0.40;81.30;;;;;;5024382;28;87135;-41
2022/01/16 14:03:30;;;;;;;;;;;-0.40;81.00;;;;;;5023434;28;88995;-41
2022/01/16 14:05:58;;;;;;;;;;;-0.40;81.40;;;;;;5023938;28;87264;-41
2022/01/16 14:08:25;;;;;;;;;;;-0.40;81.30;;;;;;5024305;28;87119;-41
2022/01/16 14:10:51;;;;;;;;;;;-0.40;81.20;;;;;;5024538;28;86776;-41
2022/01/16 14:13:17;;;;;;;;;;;-0.30;81.40;;;;;;5023839;28;89522;-41
2022/01/16 14:16:00;;;;;;;;;;;-0.30;81.40;;;;;;5024068;28;86846;-41
2022/01/16 14:18:41;;;;;;;;;;;-0.30;81.10;;;;;;5026604;27;89121;-41
2022/01/16 14:23:51;;;;;;;;;;;-0.30;81.30;;;;;;5024388;28;86880;-41
2022/01/16 14:26:16;;;;;;;;;;;-0.30;81.30;;;;;;5023917;28;88733;-41
2022/01/16 14:28:42;;;;;;;;;;;-0.20;81.20;;;;;;5023251;28;88088;-41
2022/01/16 14:31:07;;;;;;;;;;;-0.20;81.10;;;;;;5023837;28;90129;-41
2022/01/16 14:33:33;;;;;;;;;;;-0.20;81.30;;;;;;5023222;28;89751;-41
2022/01/16 14:35:58;;;;;;;;;;;-0.20;81.20;;;;;;5024001;28;87102;-41
2022/01/16 14:38:24;;;;;;;;;;;-0.20;81.10;;;;;;5023861;28;89133;-41
2022/01/16 14:40:50;;;;;;;;;;;-0.20;81.20;;;;;;5026014;28;89046;-42
2022/01/16 14:43:20;;;;;;;;;;;-0.20;81.10;;;;;;5023974;28;88905;-41
2022/01/16 14:45:45;;;;;;;;;;;-0.10;81.30;;;;;;5023818;28;88856;-41
2022/01/16 14:48:11;;;;;;;;;;;-0.10;81.30;;;;;;5023620;28;87147;-41
2022/01/16 14:50:37;;;;;;;;;;;-0.20;81.40;;;;;;5023652;28;89328;-41
2022/01/16 14:53:02;;;;;;;;;;;-0.10;81.40;;;;;;5022880;28;89106;-41
2022/01/16 14:55:28;;;;;;;;;;;-0.10;81.60;;;;;;5023555;28;87101;-41
2022/01/16 14:57:53;;;;;;;;;;;-0.20;81.60;;;;;;5023332;28;88633;-41
2022/01/16 15:00:19;;;;;;;;;;;-0.10;81.60;;;;;;5023098;28;90016;-41
2022/01/16 15:02:44;;;;;;;;;;;-0.10;81.30;;;;;;5026158;28;87231;-41
2022/01/16 15:05:11;;;;;;;;;;;-0.10;81.30;;;;;;5023019;28;90005;-41
2022/01/16 15:07:43;;;;;;;;;;;-0.10;81.30;;;;;;5023561;28;87147;-41
2022/01/16 15:10:09;;;;;;;;;;;-0.10;81.20;;;;;;5024137;28;89091;-41
2022/01/16 15:12:36;;;;;;;;;;;-0.10;81.20;;;;;;5023051;28;88686;-41